sensor_id;sensor_type;location;lat;lon;timestamp;P1;durP1;ratioP1;P2;durP2;ratioP2
40781;SDS011;26493;51.938;7.626;2022-07-31T00:00:15;16.95;;;12.27;;
40781;SDS011;26493;51.938;7.626;2022-07-31T00:02:41;17.23;;;12.10;;
40781;SDS011;26493;51.938;7.626;2022-07-31T00:05:08;18.17;;;12.52;;
40781;SDS011;26493;51.938;7.626;2022-07-31T00:07:34;17.20;;;12.75;;
40781;SDS011;26493;51.938;7.626;2022-07-31T00:10:00;18.83;;;12.55;;
40781;SDS011;26493;51.938;7.626;2022-07-31T00:12:26;17.98;;;12.77;;
40781;SDS011;26493;51.938;7.626;2022-07-31T00:14:52;16.08;;;12.35;;
40781;SDS011;26493;51.938;7.626;2022-07-31T00:17:18;16.25;;;12.38;;
40781;SDS011;26493;51.938;7.626;2022-07-31T00:19:44;16.48;;;12.52;;
40781;SDS011;26493;51.938;7.626;2022-07-31T00:22:11;16.67;;;12.15;;
40781;SDS011;26493;51.938;7.626;2022-07-31T00:24:37;17.20;;;12.23;;
40781;SDS011;26493;51.938;7.626;2022-07-31T00:27:03;17.48;;;12.20;;
40781;SDS011;26493;51.938;7.626;2022-07-31T00:29:29;16.83;;;12.30;;
40781;SDS011;26493;51.938;7.626;2022-07-31T00:31:55;16.63;;;12.35;;
40781;SDS011;26493;51.938;7.626;2022-07-31T00:34:22;17.52;;;12.60;;
40781;SDS011;26493;51.938;7.626;2022-07-31T00:36:48;17.45;;;11.82;;
40781;SDS011;26493;51.938;7.626;2022-07-31T00:39:14;18.73;;;12.70;;
40781;SDS011;26493;51.938;7.626;2022-07-31T00:41:41;21.85;;;12.77;;
40781;SDS011;26493;51.938;7.626;2022-07-31T00:44:07;17.00;;;12.50;;
40781;SDS011;26493;51.938;7.626;2022-07-31T00:46:33;18.27;;;12.65;;
40781;SDS011;26493;51.938;7.626;2022-07-31T00:48:59;16.83;;;12.25;;
40781;SDS011;26493;51.938;7.626;2022-07-31T00:51:25;16.13;;;12.30;;
40781;SDS011;26493;51.938;7.626;2022-07-31T00:53:51;16.98;;;12.43;;
40781;SDS011;26493;51.938;7.626;2022-07-31T00:56:17;16.88;;;12.38;;
40781;SDS011;26493;51.938;7.626;2022-07-31T00:58:43;16.88;;;12.50;;
40781;SDS011;26493;51.938;7.626;2022-07-31T01:01:09;17.13;;;12.50;;
40781;SDS011;26493;51.938;7.626;2022-07-31T01:03:35;17.88;;;12.07;;
40781;SDS011;26493;51.938;7.626;2022-07-31T01:06:01;17.10;;;12.30;;
40781;SDS011;26493;51.938;7.626;2022-07-31T01:08:27;19.50;;;12.07;;
40781;SDS011;26493;51.938;7.626;2022-07-31T01:13:34;16.95;;;12.02;;
40781;SDS011;26493;51.938;7.626;2022-07-31T01:16:00;16.87;;;12.60;;
40781;SDS011;26493;51.938;7.626;2022-07-31T01:18:28;16.48;;;12.10;;
40781;SDS011;26493;51.938;7.626;2022-07-31T01:20:57;16.85;;;12.75;;
40781;SDS011;26493;51.938;7.626;2022-07-31T01:25:59;16.73;;;11.77;;
40781;SDS011;26493;51.938;7.626;2022-07-31T01:31:08;18.30;;;12.73;;
40781;SDS011;26493;51.938;7.626;2022-07-31T01:33:36;18.65;;;11.90;;
40781;SDS011;26493;51.938;7.626;2022-07-31T01:36:07;17.27;;;12.52;;
40781;SDS011;26493;51.938;7.626;2022-07-31T01:38:34;16.38;;;11.90;;
40781;SDS011;26493;51.938;7.626;2022-07-31T01:41:03;16.60;;;12.30;;
40781;SDS011;26493;51.938;7.626;2022-07-31T01:43:32;17.00;;;12.10;;
40781;SDS011;26493;51.938;7.626;2022-07-31T01:46:02;18.35;;;12.85;;
40781;SDS011;26493;51.938;7.626;2022-07-31T01:48:28;19.77;;;12.18;;
40781;SDS011;26493;51.938;7.626;2022-07-31T01:50:56;17.17;;;12.63;;
40781;SDS011;26493;51.938;7.626;2022-07-31T01:53:23;16.98;;;12.52;;
40781;SDS011;26493;51.938;7.626;2022-07-31T01:55:51;16.30;;;12.32;;
40781;SDS011;26493;51.938;7.626;2022-07-31T01:58:18;17.92;;;12.40;;
40781;SDS011;26493;51.938;7.626;2022-07-31T02:00:44;17.38;;;12.23;;
40781;SDS011;26493;51.938;7.626;2022-07-31T02:03:11;17.70;;;12.35;;
40781;SDS011;26493;51.938;7.626;2022-07-31T02:05:38;16.98;;;12.02;;
40781;SDS011;26493;51.938;7.626;2022-07-31T02:08:05;16.98;;;12.10;;
40781;SDS011;26493;51.938;7.626;2022-07-31T02:10:32;18.65;;;12.55;;
40781;SDS011;26493;51.938;7.626;2022-07-31T02:12:59;17.80;;;12.13;;
40781;SDS011;26493;51.938;7.626;2022-07-31T02:15:26;18.13;;;12.30;;
40781;SDS011;26493;51.938;7.626;2022-07-31T02:17:52;16.92;;;11.65;;
40781;SDS011;26493;51.938;7.626;2022-07-31T02:20:19;17.60;;;11.85;;
40781;SDS011;26493;51.938;7.626;2022-07-31T02:22:45;16.70;;;12.20;;
40781;SDS011;26493;51.938;7.626;2022-07-31T02:25:12;16.35;;;11.82;;
40781;SDS011;26493;51.938;7.626;2022-07-31T02:27:39;18.60;;;12.02;;
40781;SDS011;26493;51.938;7.626;2022-07-31T02:30:06;18.38;;;12.70;;
40781;SDS011;26493;51.938;7.626;2022-07-31T02:32:33;17.83;;;12.50;;
40781;SDS011;26493;51.938;7.626;2022-07-31T02:35:00;17.00;;;12.18;;
40781;SDS011;26493;51.938;7.626;2022-07-31T02:37:26;21.00;;;12.00;;
40781;SDS011;26493;51.938;7.626;2022-07-31T02:39:53;20.70;;;12.57;;
40781;SDS011;26493;51.938;7.626;2022-07-31T02:42:20;16.65;;;11.90;;
40781;SDS011;26493;51.938;7.626;2022-07-31T02:44:47;17.15;;;11.82;;
40781;SDS011;26493;51.938;7.626;2022-07-31T02:47:13;16.45;;;11.93;;
40781;SDS011;26493;51.938;7.626;2022-07-31T02:49:39;16.98;;;11.73;;
40781;SDS011;26493;51.938;7.626;2022-07-31T02:52:06;17.25;;;12.20;;
40781;SDS011;26493;51.938;7.626;2022-07-31T02:54:34;17.10;;;11.90;;
40781;SDS011;26493;51.938;7.626;2022-07-31T02:59:28;20.98;;;12.32;;
40781;SDS011;26493;51.938;7.626;2022-07-31T03:01:54;17.45;;;11.98;;
40781;SDS011;26493;51.938;7.626;2022-07-31T03:04:20;19.50;;;12.70;;
40781;SDS011;26493;51.938;7.626;2022-07-31T03:06:46;19.20;;;12.27;;
40781;SDS011;26493;51.938;7.626;2022-07-31T03:09:15;19.58;;;12.60;;
40781;SDS011;26493;51.938;7.626;2022-07-31T03:11:41;16.52;;;11.80;;
40781;SDS011;26493;51.938;7.626;2022-07-31T03:14:07;17.17;;;12.57;;
40781;SDS011;26493;51.938;7.626;2022-07-31T03:16:34;18.65;;;12.15;;
40781;SDS011;26493;51.938;7.626;2022-07-31T03:19:02;17.85;;;12.43;;
40781;SDS011;26493;51.938;7.626;2022-07-31T03:21:28;18.65;;;11.93;;
40781;SDS011;26493;51.938;7.626;2022-07-31T03:23:55;16.23;;;11.93;;
40781;SDS011;26493;51.938;7.626;2022-07-31T03:26:22;17.05;;;11.70;;
40781;SDS011;26493;51.938;7.626;2022-07-31T03:28:48;17.10;;;11.80;;
40781;SDS011;26493;51.938;7.626;2022-07-31T03:31:14;17.42;;;11.75;;
40781;SDS011;26493;51.938;7.626;2022-07-31T03:33:40;17.55;;;12.27;;
40781;SDS011;26493;51.938;7.626;2022-07-31T03:36:06;17.52;;;12.00;;
40781;SDS011;26493;51.938;7.626;2022-07-31T03:38:36;17.08;;;11.88;;
40781;SDS011;26493;51.938;7.626;2022-07-31T03:41:02;16.70;;;11.98;;
40781;SDS011;26493;51.938;7.626;2022-07-31T03:43:29;17.00;;;12.30;;
40781;SDS011;26493;51.938;7.626;2022-07-31T03:45:56;21.15;;;12.27;;
40781;SDS011;26493;51.938;7.626;2022-07-31T03:48:23;17.60;;;11.95;;
40781;SDS011;26493;51.938;7.626;2022-07-31T03:50:49;18.42;;;12.48;;
40781;SDS011;26493;51.938;7.626;2022-07-31T03:53:15;16.88;;;11.90;;
40781;SDS011;26493;51.938;7.626;2022-07-31T03:55:42;16.77;;;12.32;;
40781;SDS011;26493;51.938;7.626;2022-07-31T03:58:08;17.17;;;11.60;;
40781;SDS011;26493;51.938;7.626;2022-07-31T04:00:34;17.67;;;11.93;;
40781;SDS011;26493;51.938;7.626;2022-07-31T04:03:07;18.17;;;12.80;;
40781;SDS011;26493;51.938;7.626;2022-07-31T04:05:34;16.35;;;12.43;;
40781;SDS011;26493;51.938;7.626;2022-07-31T04:08:00;16.58;;;12.20;;
40781;SDS011;26493;51.938;7.626;2022-07-31T04:10:26;19.50;;;13.27;;
40781;SDS011;26493;51.938;7.626;2022-07-31T04:12:52;17.88;;;12.98;;
40781;SDS011;26493;51.938;7.626;2022-07-31T04:15:18;16.50;;;12.65;;
40781;SDS011;26493;51.938;7.626;2022-07-31T04:17:44;18.60;;;13.10;;
40781;SDS011;26493;51.938;7.626;2022-07-31T04:20:10;18.30;;;12.77;;
40781;SDS011;26493;51.938;7.626;2022-07-31T04:22:36;17.45;;;13.18;;
40781;SDS011;26493;51.938;7.626;2022-07-31T04:25:03;17.52;;;13.20;;
40781;SDS011;26493;51.938;7.626;2022-07-31T04:27:29;19.08;;;13.50;;
40781;SDS011;26493;51.938;7.626;2022-07-31T04:29:55;20.02;;;13.02;;
40781;SDS011;26493;51.938;7.626;2022-07-31T04:32:21;18.50;;;12.80;;
40781;SDS011;26493;51.938;7.626;2022-07-31T04:34:48;17.30;;;13.18;;
40781;SDS011;26493;51.938;7.626;2022-07-31T04:37:14;17.20;;;13.30;;
40781;SDS011;26493;51.938;7.626;2022-07-31T04:39:41;16.83;;;13.63;;
40781;SDS011;26493;51.938;7.626;2022-07-31T04:42:07;17.70;;;13.55;;
40781;SDS011;26493;51.938;7.626;2022-07-31T04:44:33;17.77;;;13.48;;
40781;SDS011;26493;51.938;7.626;2022-07-31T04:47:00;18.58;;;13.45;;
40781;SDS011;26493;51.938;7.626;2022-07-31T04:49:26;19.55;;;13.68;;
40781;SDS011;26493;51.938;7.626;2022-07-31T04:51:52;18.88;;;13.18;;
40781;SDS011;26493;51.938;7.626;2022-07-31T04:54:18;17.42;;;12.65;;
40781;SDS011;26493;51.938;7.626;2022-07-31T04:56:44;17.15;;;13.52;;
40781;SDS011;26493;51.938;7.626;2022-07-31T04:59:13;17.42;;;13.30;;
40781;SDS011;26493;51.938;7.626;2022-07-31T05:01:39;19.10;;;13.70;;
40781;SDS011;26493;51.938;7.626;2022-07-31T05:04:06;19.65;;;14.02;;
40781;SDS011;26493;51.938;7.626;2022-07-31T05:06:37;18.73;;;13.30;;
40781;SDS011;26493;51.938;7.626;2022-07-31T05:09:04;16.98;;;13.55;;
40781;SDS011;26493;51.938;7.626;2022-07-31T05:11:31;19.23;;;13.10;;
40781;SDS011;26493;51.938;7.626;2022-07-31T05:13:57;18.13;;;13.73;;
40781;SDS011;26493;51.938;7.626;2022-07-31T05:16:24;18.55;;;13.50;;
40781;SDS011;26493;51.938;7.626;2022-07-31T05:18:50;18.23;;;13.38;;
40781;SDS011;26493;51.938;7.626;2022-07-31T05:21:17;19.23;;;13.40;;
40781;SDS011;26493;51.938;7.626;2022-07-31T05:23:44;20.27;;;13.20;;
40781;SDS011;26493;51.938;7.626;2022-07-31T05:26:10;17.50;;;13.30;;
40781;SDS011;26493;51.938;7.626;2022-07-31T05:28:36;18.23;;;13.40;;
40781;SDS011;26493;51.938;7.626;2022-07-31T05:31:03;18.52;;;13.30;;
40781;SDS011;26493;51.938;7.626;2022-07-31T05:33:29;17.92;;;14.00;;
40781;SDS011;26493;51.938;7.626;2022-07-31T05:35:55;20.48;;;13.98;;
40781;SDS011;26493;51.938;7.626;2022-07-31T05:38:22;18.75;;;13.98;;
40781;SDS011;26493;51.938;7.626;2022-07-31T05:40:48;17.13;;;14.35;;
40781;SDS011;26493;51.938;7.626;2022-07-31T05:43:14;17.27;;;13.90;;
40781;SDS011;26493;51.938;7.626;2022-07-31T05:45:40;18.35;;;13.90;;
40781;SDS011;26493;51.938;7.626;2022-07-31T05:48:06;17.42;;;14.10;;
40781;SDS011;26493;51.938;7.626;2022-07-31T05:50:32;18.02;;;13.57;;
40781;SDS011;26493;51.938;7.626;2022-07-31T05:52:58;18.67;;;13.82;;
40781;SDS011;26493;51.938;7.626;2022-07-31T05:55:24;17.23;;;13.70;;
40781;SDS011;26493;51.938;7.626;2022-07-31T05:57:50;20.10;;;13.45;;
40781;SDS011;26493;51.938;7.626;2022-07-31T06:00:17;18.17;;;13.93;;
40781;SDS011;26493;51.938;7.626;2022-07-31T06:02:44;16.67;;;13.07;;
40781;SDS011;26493;51.938;7.626;2022-07-31T06:05:10;17.60;;;14.05;;
40781;SDS011;26493;51.938;7.626;2022-07-31T06:07:36;19.20;;;13.43;;
40781;SDS011;26493;51.938;7.626;2022-07-31T06:10:03;17.27;;;13.73;;
40781;SDS011;26493;51.938;7.626;2022-07-31T06:12:29;17.10;;;14.43;;
40781;SDS011;26493;51.938;7.626;2022-07-31T06:14:55;20.23;;;14.63;;
40781;SDS011;26493;51.938;7.626;2022-07-31T06:17:22;17.88;;;14.35;;
40781;SDS011;26493;51.938;7.626;2022-07-31T06:19:48;19.42;;;14.13;;
40781;SDS011;26493;51.938;7.626;2022-07-31T06:22:14;18.88;;;14.07;;
40781;SDS011;26493;51.938;7.626;2022-07-31T06:24:41;17.08;;;14.15;;
40781;SDS011;26493;51.938;7.626;2022-07-31T06:27:07;20.08;;;15.40;;
40781;SDS011;26493;51.938;7.626;2022-07-31T06:29:33;17.67;;;13.95;;
40781;SDS011;26493;51.938;7.626;2022-07-31T06:31:59;18.63;;;14.45;;
40781;SDS011;26493;51.938;7.626;2022-07-31T06:34:25;17.15;;;14.00;;
40781;SDS011;26493;51.938;7.626;2022-07-31T06:36:51;18.48;;;14.60;;
40781;SDS011;26493;51.938;7.626;2022-07-31T06:39:17;17.25;;;14.63;;
40781;SDS011;26493;51.938;7.626;2022-07-31T06:41:43;17.30;;;14.68;;
40781;SDS011;26493;51.938;7.626;2022-07-31T06:44:10;19.80;;;15.17;;
40781;SDS011;26493;51.938;7.626;2022-07-31T06:46:36;17.17;;;14.25;;
40781;SDS011;26493;51.938;7.626;2022-07-31T06:49:03;18.63;;;14.30;;
40781;SDS011;26493;51.938;7.626;2022-07-31T06:51:29;17.80;;;14.52;;
40781;SDS011;26493;51.938;7.626;2022-07-31T06:53:55;17.52;;;14.43;;
40781;SDS011;26493;51.938;7.626;2022-07-31T06:56:22;17.40;;;14.02;;
40781;SDS011;26493;51.938;7.626;2022-07-31T06:58:48;18.75;;;14.30;;
40781;SDS011;26493;51.938;7.626;2022-07-31T07:01:14;18.77;;;14.52;;
40781;SDS011;26493;51.938;7.626;2022-07-31T07:03:40;17.10;;;14.27;;
40781;SDS011;26493;51.938;7.626;2022-07-31T07:06:06;17.60;;;14.63;;
40781;SDS011;26493;51.938;7.626;2022-07-31T07:08:32;19.80;;;15.40;;
40781;SDS011;26493;51.938;7.626;2022-07-31T07:10:58;21.95;;;14.70;;
40781;SDS011;26493;51.938;7.626;2022-07-31T07:13:24;18.40;;;15.20;;
40781;SDS011;26493;51.938;7.626;2022-07-31T07:15:50;19.52;;;15.18;;
40781;SDS011;26493;51.938;7.626;2022-07-31T07:18:16;19.98;;;15.35;;
40781;SDS011;26493;51.938;7.626;2022-07-31T07:20:42;18.95;;;15.00;;
40781;SDS011;26493;51.938;7.626;2022-07-31T07:23:08;19.15;;;16.15;;
40781;SDS011;26493;51.938;7.626;2022-07-31T07:25:34;21.70;;;16.38;;
40781;SDS011;26493;51.938;7.626;2022-07-31T07:28:00;21.23;;;15.82;;
40781;SDS011;26493;51.938;7.626;2022-07-31T07:30:26;18.58;;;15.25;;
40781;SDS011;26493;51.938;7.626;2022-07-31T07:32:53;19.48;;;15.20;;
40781;SDS011;26493;51.938;7.626;2022-07-31T07:35:19;18.70;;;15.40;;
40781;SDS011;26493;51.938;7.626;2022-07-31T07:37:46;19.70;;;15.18;;
40781;SDS011;26493;51.938;7.626;2022-07-31T07:40:12;21.27;;;16.23;;
40781;SDS011;26493;51.938;7.626;2022-07-31T07:42:39;19.35;;;15.80;;
40781;SDS011;26493;51.938;7.626;2022-07-31T07:45:05;19.05;;;15.23;;
40781;SDS011;26493;51.938;7.626;2022-07-31T07:47:31;21.00;;;15.85;;
40781;SDS011;26493;51.938;7.626;2022-07-31T07:49:57;18.73;;;15.48;;
40781;SDS011;26493;51.938;7.626;2022-07-31T07:52:23;27.00;;;15.73;;
40781;SDS011;26493;51.938;7.626;2022-07-31T07:54:49;19.33;;;15.98;;
40781;SDS011;26493;51.938;7.626;2022-07-31T07:57:16;21.38;;;16.52;;
40781;SDS011;26493;51.938;7.626;2022-07-31T07:59:42;21.05;;;15.40;;
40781;SDS011;26493;51.938;7.626;2022-07-31T08:02:08;19.15;;;15.95;;
40781;SDS011;26493;51.938;7.626;2022-07-31T08:04:36;19.92;;;16.25;;
40781;SDS011;26493;51.938;7.626;2022-07-31T08:07:02;20.10;;;16.35;;
40781;SDS011;26493;51.938;7.626;2022-07-31T08:09:28;19.80;;;15.50;;
40781;SDS011;26493;51.938;7.626;2022-07-31T08:11:54;19.40;;;15.30;;
40781;SDS011;26493;51.938;7.626;2022-07-31T08:14:20;19.70;;;15.63;;
40781;SDS011;26493;51.938;7.626;2022-07-31T08:16:46;20.10;;;16.08;;
40781;SDS011;26493;51.938;7.626;2022-07-31T08:19:12;20.02;;;16.67;;
40781;SDS011;26493;51.938;7.626;2022-07-31T08:21:38;20.05;;;17.85;;
40781;SDS011;26493;51.938;7.626;2022-07-31T08:24:05;22.10;;;17.38;;
40781;SDS011;26493;51.938;7.626;2022-07-31T08:26:31;20.10;;;16.15;;
40781;SDS011;26493;51.938;7.626;2022-07-31T08:29:16;20.95;;;17.23;;
40781;SDS011;26493;51.938;7.626;2022-07-31T08:31:42;22.55;;;17.80;;
40781;SDS011;26493;51.938;7.626;2022-07-31T08:34:08;22.42;;;16.60;;
40781;SDS011;26493;51.938;7.626;2022-07-31T08:36:34;21.02;;;17.25;;
40781;SDS011;26493;51.938;7.626;2022-07-31T08:39:01;25.15;;;17.38;;
40781;SDS011;26493;51.938;7.626;2022-07-31T08:41:28;21.35;;;16.63;;
40781;SDS011;26493;51.938;7.626;2022-07-31T08:43:54;20.70;;;17.42;;
40781;SDS011;26493;51.938;7.626;2022-07-31T08:46:21;20.33;;;17.60;;
40781;SDS011;26493;51.938;7.626;2022-07-31T08:48:48;23.60;;;17.35;;
40781;SDS011;26493;51.938;7.626;2022-07-31T08:51:17;22.48;;;17.33;;
40781;SDS011;26493;51.938;7.626;2022-07-31T08:53:43;23.55;;;18.10;;
40781;SDS011;26493;51.938;7.626;2022-07-31T08:56:10;24.33;;;18.92;;
40781;SDS011;26493;51.938;7.626;2022-07-31T08:58:36;23.10;;;20.50;;
40781;SDS011;26493;51.938;7.626;2022-07-31T09:01:02;22.70;;;19.00;;
40781;SDS011;26493;51.938;7.626;2022-07-31T09:03:28;26.20;;;19.98;;
40781;SDS011;26493;51.938;7.626;2022-07-31T09:05:54;25.55;;;20.88;;
40781;SDS011;26493;51.938;7.626;2022-07-31T09:08:20;22.25;;;18.90;;
40781;SDS011;26493;51.938;7.626;2022-07-31T09:10:47;23.48;;;19.52;;
40781;SDS011;26493;51.938;7.626;2022-07-31T09:13:15;24.60;;;19.30;;
40781;SDS011;26493;51.938;7.626;2022-07-31T09:15:42;24.65;;;19.42;;
40781;SDS011;26493;51.938;7.626;2022-07-31T09:18:15;22.50;;;19.88;;
40781;SDS011;26493;51.938;7.626;2022-07-31T09:20:45;25.95;;;20.30;;
40781;SDS011;26493;51.938;7.626;2022-07-31T09:23:17;24.10;;;19.33;;
40781;SDS011;26493;51.938;7.626;2022-07-31T09:26:17;22.35;;;19.50;;
40781;SDS011;26493;51.938;7.626;2022-07-31T09:28:37;26.05;;;19.63;;
40781;SDS011;26493;51.938;7.626;2022-07-31T09:31:03;22.17;;;19.80;;
40781;SDS011;26493;51.938;7.626;2022-07-31T09:33:30;24.23;;;19.60;;
40781;SDS011;26493;51.938;7.626;2022-07-31T09:35:56;23.85;;;19.45;;
40781;SDS011;26493;51.938;7.626;2022-07-31T09:38:30;22.73;;;19.55;;
40781;SDS011;26493;51.938;7.626;2022-07-31T09:41:06;24.25;;;20.15;;
40781;SDS011;26493;51.938;7.626;2022-07-31T09:43:33;24.67;;;20.08;;
40781;SDS011;26493;51.938;7.626;2022-07-31T09:45:59;22.83;;;19.05;;
40781;SDS011;26493;51.938;7.626;2022-07-31T09:48:25;25.13;;;19.45;;
40781;SDS011;26493;51.938;7.626;2022-07-31T09:53:18;22.90;;;18.95;;
40781;SDS011;26493;51.938;7.626;2022-07-31T09:55:51;23.63;;;18.67;;
40781;SDS011;26493;51.938;7.626;2022-07-31T09:58:17;23.95;;;19.83;;
40781;SDS011;26493;51.938;7.626;2022-07-31T10:00:43;23.13;;;19.77;;
40781;SDS011;26493;51.938;7.626;2022-07-31T10:03:10;21.27;;;18.75;;
40781;SDS011;26493;51.938;7.626;2022-07-31T10:05:37;23.00;;;18.23;;
40781;SDS011;26493;51.938;7.626;2022-07-31T10:08:06;22.17;;;18.88;;
40781;SDS011;26493;51.938;7.626;2022-07-31T10:10:32;23.40;;;18.95;;
40781;SDS011;26493;51.938;7.626;2022-07-31T10:12:59;21.83;;;18.25;;
40781;SDS011;26493;51.938;7.626;2022-07-31T10:15:27;22.80;;;19.35;;
40781;SDS011;26493;51.938;7.626;2022-07-31T10:17:53;25.23;;;19.50;;
40781;SDS011;26493;51.938;7.626;2022-07-31T10:20:21;21.15;;;18.40;;
40781;SDS011;26493;51.938;7.626;2022-07-31T10:22:55;22.10;;;18.55;;
40781;SDS011;26493;51.938;7.626;2022-07-31T10:25:25;22.00;;;18.08;;
40781;SDS011;26493;51.938;7.626;2022-07-31T10:27:52;21.60;;;17.75;;
40781;SDS011;26493;51.938;7.626;2022-07-31T10:32:47;23.83;;;19.23;;
40781;SDS011;26493;51.938;7.626;2022-07-31T10:35:14;20.95;;;18.33;;
40781;SDS011;26493;51.938;7.626;2022-07-31T10:45:30;21.58;;;17.80;;
40781;SDS011;26493;51.938;7.626;2022-07-31T10:47:57;23.30;;;17.77;;
40781;SDS011;26493;51.938;7.626;2022-07-31T10:50:24;20.98;;;17.50;;
40781;SDS011;26493;51.938;7.626;2022-07-31T10:52:50;21.38;;;17.20;;
40781;SDS011;26493;51.938;7.626;2022-07-31T10:55:18;21.00;;;16.48;;
40781;SDS011;26493;51.938;7.626;2022-07-31T10:57:49;19.52;;;16.67;;
40781;SDS011;26493;51.938;7.626;2022-07-31T11:00:19;20.45;;;17.80;;
40781;SDS011;26493;51.938;7.626;2022-07-31T11:02:46;18.98;;;16.65;;
40781;SDS011;26493;51.938;7.626;2022-07-31T11:05:16;19.48;;;16.17;;
40781;SDS011;26493;51.938;7.626;2022-07-31T11:08:01;19.17;;;16.48;;
40781;SDS011;26493;51.938;7.626;2022-07-31T11:10:28;18.98;;;15.35;;
40781;SDS011;26493;51.938;7.626;2022-07-31T11:13:02;19.70;;;15.85;;
40781;SDS011;26493;51.938;7.626;2022-07-31T11:15:29;19.67;;;16.38;;
40781;SDS011;26493;51.938;7.626;2022-07-31T11:17:55;19.02;;;15.73;;
40781;SDS011;26493;51.938;7.626;2022-07-31T11:20:23;18.33;;;15.30;;
40781;SDS011;26493;51.938;7.626;2022-07-31T11:25:18;19.38;;;15.63;;
40781;SDS011;26493;51.938;7.626;2022-07-31T11:27:44;18.83;;;15.82;;
40781;SDS011;26493;51.938;7.626;2022-07-31T11:30:10;20.15;;;16.15;;
40781;SDS011;26493;51.938;7.626;2022-07-31T11:32:36;19.13;;;15.48;;
40781;SDS011;26493;51.938;7.626;2022-07-31T11:35:02;18.98;;;15.68;;
40781;SDS011;26493;51.938;7.626;2022-07-31T11:37:30;18.00;;;15.38;;
40781;SDS011;26493;51.938;7.626;2022-07-31T11:39:56;17.55;;;15.10;;
40781;SDS011;26493;51.938;7.626;2022-07-31T11:42:24;18.40;;;15.43;;
40781;SDS011;26493;51.938;7.626;2022-07-31T11:44:52;18.50;;;15.68;;
40781;SDS011;26493;51.938;7.626;2022-07-31T11:47:18;18.73;;;16.23;;
40781;SDS011;26493;51.938;7.626;2022-07-31T11:49:44;18.52;;;16.02;;
40781;SDS011;26493;51.938;7.626;2022-07-31T11:52:11;18.88;;;16.70;;
40781;SDS011;26493;51.938;7.626;2022-07-31T11:54:37;18.90;;;16.48;;
40781;SDS011;26493;51.938;7.626;2022-07-31T11:57:03;19.40;;;16.85;;
40781;SDS011;26493;51.938;7.626;2022-07-31T11:59:36;20.20;;;16.80;;
40781;SDS011;26493;51.938;7.626;2022-07-31T12:04:29;19.13;;;17.05;;
40781;SDS011;26493;51.938;7.626;2022-07-31T12:06:56;21.63;;;16.60;;
40781;SDS011;26493;51.938;7.626;2022-07-31T12:09:22;19.02;;;16.67;;
40781;SDS011;26493;51.938;7.626;2022-07-31T12:11:49;21.10;;;17.48;;
40781;SDS011;26493;51.938;7.626;2022-07-31T12:14:25;20.17;;;17.17;;
40781;SDS011;26493;51.938;7.626;2022-07-31T12:16:51;21.38;;;18.52;;
40781;SDS011;26493;51.938;7.626;2022-07-31T12:19:24;21.65;;;19.40;;
40781;SDS011;26493;51.938;7.626;2022-07-31T12:21:50;22.65;;;20.30;;
40781;SDS011;26493;51.938;7.626;2022-07-31T12:24:16;23.77;;;21.38;;
40781;SDS011;26493;51.938;7.626;2022-07-31T12:29:16;23.13;;;20.80;;
40781;SDS011;26493;51.938;7.626;2022-07-31T12:31:50;23.40;;;21.00;;
40781;SDS011;26493;51.938;7.626;2022-07-31T12:34:26;23.20;;;20.90;;
40781;SDS011;26493;51.938;7.626;2022-07-31T12:36:56;24.30;;;21.83;;
40781;SDS011;26493;51.938;7.626;2022-07-31T12:39:22;23.98;;;21.38;;
40781;SDS011;26493;51.938;7.626;2022-07-31T12:41:48;23.02;;;20.63;;
40781;SDS011;26493;51.938;7.626;2022-07-31T12:44:14;21.35;;;18.90;;
40781;SDS011;26493;51.938;7.626;2022-07-31T12:46:40;26.23;;;19.17;;
40781;SDS011;26493;51.938;7.626;2022-07-31T12:49:06;22.85;;;18.15;;
40781;SDS011;26493;51.938;7.626;2022-07-31T12:51:32;20.02;;;17.92;;
40781;SDS011;26493;51.938;7.626;2022-07-31T12:54:00;20.92;;;18.40;;
40781;SDS011;26493;51.938;7.626;2022-07-31T12:56:27;19.70;;;17.48;;
40781;SDS011;26493;51.938;7.626;2022-07-31T12:58:53;20.23;;;17.75;;
40781;SDS011;26493;51.938;7.626;2022-07-31T13:01:19;18.50;;;16.30;;
40781;SDS011;26493;51.938;7.626;2022-07-31T13:03:45;19.50;;;16.67;;
40781;SDS011;26493;51.938;7.626;2022-07-31T13:06:14;20.58;;;16.63;;
40781;SDS011;26493;51.938;7.626;2022-07-31T13:08:40;18.38;;;16.15;;
40781;SDS011;26493;51.938;7.626;2022-07-31T13:11:07;19.50;;;16.65;;
40781;SDS011;26493;51.938;7.626;2022-07-31T13:13:33;19.75;;;16.38;;
40781;SDS011;26493;51.938;7.626;2022-07-31T13:16:00;19.77;;;16.40;;
40781;SDS011;26493;51.938;7.626;2022-07-31T13:18:26;19.42;;;15.10;;
40781;SDS011;26493;51.938;7.626;2022-07-31T13:20:53;18.58;;;15.20;;
40781;SDS011;26493;51.938;7.626;2022-07-31T13:23:22;19.70;;;14.90;;
40781;SDS011;26493;51.938;7.626;2022-07-31T13:25:48;19.13;;;14.85;;
40781;SDS011;26493;51.938;7.626;2022-07-31T13:28:15;17.95;;;14.90;;
40781;SDS011;26493;51.938;7.626;2022-07-31T13:30:41;21.10;;;14.57;;
40781;SDS011;26493;51.938;7.626;2022-07-31T13:33:07;21.45;;;14.85;;
40781;SDS011;26493;51.938;7.626;2022-07-31T13:35:33;16.70;;;14.00;;
40781;SDS011;26493;51.938;7.626;2022-07-31T13:37:59;19.63;;;14.30;;
40781;SDS011;26493;51.938;7.626;2022-07-31T13:40:25;17.42;;;13.88;;
40781;SDS011;26493;51.938;7.626;2022-07-31T13:43:10;18.67;;;13.98;;
40781;SDS011;26493;51.938;7.626;2022-07-31T13:45:36;18.27;;;13.68;;
40781;SDS011;26493;51.938;7.626;2022-07-31T13:48:02;18.00;;;13.48;;
40781;SDS011;26493;51.938;7.626;2022-07-31T13:50:28;17.08;;;13.60;;
40781;SDS011;26493;51.938;7.626;2022-07-31T13:52:54;18.52;;;14.05;;
40781;SDS011;26493;51.938;7.626;2022-07-31T13:55:23;17.90;;;14.35;;
40781;SDS011;26493;51.938;7.626;2022-07-31T13:57:49;17.05;;;13.73;;
40781;SDS011;26493;51.938;7.626;2022-07-31T14:00:15;16.50;;;13.63;;
40781;SDS011;26493;51.938;7.626;2022-07-31T14:02:41;19.10;;;14.60;;
40781;SDS011;26493;51.938;7.626;2022-07-31T14:05:10;17.95;;;15.02;;
40781;SDS011;26493;51.938;7.626;2022-07-31T14:07:36;18.35;;;14.13;;
40781;SDS011;26493;51.938;7.626;2022-07-31T14:10:03;16.75;;;13.95;;
40781;SDS011;26493;51.938;7.626;2022-07-31T14:12:29;18.55;;;14.57;;
40781;SDS011;26493;51.938;7.626;2022-07-31T14:14:55;17.50;;;14.38;;
40781;SDS011;26493;51.938;7.626;2022-07-31T14:17:21;18.98;;;14.45;;
40781;SDS011;26493;51.938;7.626;2022-07-31T14:19:47;18.43;;;14.80;;
40781;SDS011;26493;51.938;7.626;2022-07-31T14:22:13;18.10;;;14.95;;
40781;SDS011;26493;51.938;7.626;2022-07-31T14:24:39;17.85;;;14.18;;
40781;SDS011;26493;51.938;7.626;2022-07-31T14:27:12;19.52;;;14.45;;
40781;SDS011;26493;51.938;7.626;2022-07-31T14:29:38;17.52;;;14.35;;
40781;SDS011;26493;51.938;7.626;2022-07-31T14:32:04;19.67;;;14.73;;
40781;SDS011;26493;51.938;7.626;2022-07-31T14:34:30;19.35;;;14.30;;
40781;SDS011;26493;51.938;7.626;2022-07-31T14:36:56;17.58;;;14.90;;
40781;SDS011;26493;51.938;7.626;2022-07-31T14:39:22;18.65;;;14.48;;
40781;SDS011;26493;51.938;7.626;2022-07-31T14:41:48;17.90;;;13.70;;
40781;SDS011;26493;51.938;7.626;2022-07-31T14:44:14;18.58;;;14.43;;
40781;SDS011;26493;51.938;7.626;2022-07-31T14:46:40;17.80;;;14.73;;
40781;SDS011;26493;51.938;7.626;2022-07-31T14:49:06;19.27;;;14.32;;